Time;durP1;ratioP1;P1;durP2;ratioP2;P2;SDS_P1;SDS_P2;PMS_P1;PMS_P2;Temp;Humidity;BMP_temperature;BMP_pressure;BME280_temperature;BME280_humidity;BME280_pressure;Samples;Min_cycle;Max_cycle;Signal;HPM_P1;HPM_P2
2024/02/14 00:01:36;;;;;;;3.13;1.60;;;4.10;99.90;;;;;;5093272;28;20210;-61
2024/02/14 00:04:02;;;;;;;1.58;1.48;;;3.90;99.90;;;;;;5093202;28;20899;-61
2024/02/14 00:06:28;;;;;;;2.75;1.75;;;3.90;99.90;;;;;;5093680;28;20616;-60
2024/02/14 00:08:54;;;;;;;3.07;2.17;;;3.90;99.90;;;;;;5093174;28;20252;-60
2024/02/14 00:11:19;;;;;;;2.17;1.87;;;3.90;99.90;;;;;;5093099;28;20747;-60
2024/02/14 00:13:45;;;;;;;2.27;2.10;;;3.90;99.90;;;;;;5093118;28;20193;-61
2024/02/14 00:16:10;;;;;;;2.33;2.13;;;4.00;99.90;;;;;;5092859;28;20236;-60
2024/02/14 00:18:36;;;;;;;3.13;1.93;;;3.90;99.90;;;;;;5092841;28;20161;-61
2024/02/14 00:21:04;;;;;;;1.70;1.60;;;3.90;99.90;;;;;;5092862;28;20173;-60
2024/02/14 00:23:30;;;;;;;2.15;1.60;;;3.80;99.90;;;;;;5092848;28;20188;-60
2024/02/14 00:25:56;;;;;;;1.52;1.38;;;3.80;99.90;;;;;;5092884;28;20221;-60
2024/02/14 00:28:23;;;;;;;2.57;1.50;;;3.80;99.90;;;;;;5092671;28;20197;-60
2024/02/14 00:30:49;;;;;;;1.83;1.73;;;3.70;99.90;;;;;;5094100;28;20177;-61
2024/02/14 00:33:15;;;;;;;2.40;1.33;;;3.70;99.90;;;;;;5092909;28;20211;-61
2024/02/14 00:35:42;;;;;;;2.00;1.90;;;3.70;99.90;;;;;;5092710;28;20584;-61
2024/02/14 00:38:08;;;;;;;1.17;1.15;;;3.70;99.90;;;;;;5092365;28;20255;-60
2024/02/14 00:40:33;;;;;;;1.33;1.23;;;3.70;99.90;;;;;;5092699;28;20172;-60
2024/02/14 00:42:59;;;;;;;3.13;3.03;;;3.70;99.90;;;;;;5092360;28;20179;-60
2024/02/14 00:45:24;;;;;;;1.30;1.20;;;3.70;99.90;;;;;;5092556;28;20179;-60
2024/02/14 00:47:50;;;;;;;2.43;1.00;;;3.60;99.90;;;;;;5092301;28;20169;-61
2024/02/14 00:50:16;;;;;;;4.27;1.30;;;3.60;99.90;;;;;;5092616;28;20533;-61
2024/02/14 00:52:42;;;;;;;1.90;1.17;;;3.60;99.90;;;;;;5092516;28;20192;-60
2024/02/14 00:55:08;;;;;;;1.40;1.30;;;3.50;99.90;;;;;;5092263;28;20279;-60
2024/02/14 00:57:34;;;;;;;1.10;0.80;;;3.50;99.90;;;;;;5092022;28;20685;-60
2024/02/14 01:00:00;;;;;;;1.20;1.00;;;3.40;99.90;;;;;;5092134;28;20399;-61
2024/02/14 01:02:26;;;;;;;2.93;1.17;;;3.50;99.90;;;;;;5092362;28;20542;-61
2024/02/14 01:04:52;;;;;;;0.73;0.73;;;3.60;99.90;;;;;;5092259;28;20256;-61
2024/02/14 01:07:17;;;;;;;0.95;0.80;;;3.50;99.90;;;;;;5092063;28;20912;-60
2024/02/14 01:09:43;;;;;;;3.30;0.93;;;3.50;99.90;;;;;;5092119;28;20184;-60
2024/02/14 01:12:09;;;;;;;2.93;1.10;;;3.50;99.90;;;;;;5091902;28;20196;-61
2024/02/14 01:14:34;;;;;;;3.43;1.73;;;3.60;99.90;;;;;;5092077;28;20203;-60
2024/02/14 01:17:00;;;;;;;4.07;1.47;;;3.50;99.90;;;;;;5091687;28;20236;-61
2024/02/14 01:19:28;;;;;;;1.67;1.37;;;3.50;99.90;;;;;;5091950;28;20261;-61
2024/02/14 01:21:54;;;;;;;0.90;0.90;;;3.50;99.90;;;;;;5091460;28;20187;-61
2024/02/14 01:24:22;;;;;;;1.35;1.25;;;3.40;99.90;;;;;;5091803;28;20280;-60
2024/02/14 01:26:47;;;;;;;1.48;1.30;;;3.40;99.90;;;;;;5091701;28;20642;-60
2024/02/14 01:29:13;;;;;;;2.53;1.13;;;3.40;99.90;;;;;;5091650;28;20199;-61
2024/02/14 01:31:38;;;;;;;1.10;1.10;;;3.40;99.90;;;;;;5091681;28;20172;-61
2024/02/14 01:34:04;;;;;;;1.70;1.00;;;3.30;99.90;;;;;;5091643;28;20192;-61
2024/02/14 01:36:30;;;;;;;1.10;0.80;;;3.20;99.90;;;;;;5091443;28;20575;-60
2024/02/14 01:38:56;;;;;;;3.63;1.07;;;3.20;99.90;;;;;;5091698;28;20169;-61
2024/02/14 01:41:22;;;;;;;2.00;1.00;;;3.20;99.90;;;;;;5091682;28;20176;-61
2024/02/14 01:43:48;;;;;;;1.95;1.15;;;3.30;99.90;;;;;;5091339;28;20454;-61
2024/02/14 01:46:14;;;;;;;1.17;0.83;;;3.30;99.90;;;;;;5091499;28;20183;-61
2024/02/14 01:48:42;;;;;;;0.97;0.97;;;3.40;99.90;;;;;;5091408;28;20464;-60
2024/02/14 01:51:11;;;;;;;0.88;0.80;;;3.50;99.90;;;;;;5091416;28;20498;-61
2024/02/14 01:53:38;;;;;;;0.90;0.90;;;3.50;99.90;;;;;;5092731;28;20200;-60
2024/02/14 01:56:05;;;;;;;1.27;1.17;;;3.60;99.90;;;;;;5091250;28;20198;-61
2024/02/14 01:58:32;;;;;;;1.17;0.98;;;3.60;99.90;;;;;;5091267;28;20164;-60
2024/02/14 02:00:58;;;;;;;6.18;1.13;;;3.70;99.90;;;;;;5091437;28;20173;-61
2024/02/14 02:03:25;;;;;;;1.00;1.00;;;3.70;99.90;;;;;;5091325;28;20193;-61
2024/02/14 02:05:52;;;;;;;4.25;1.60;;;3.70;99.90;;;;;;5091306;28;20414;-61
2024/02/14 02:08:18;;;;;;;1.23;1.13;;;3.70;99.90;;;;;;5091059;28;20203;-61
2024/02/14 02:10:43;;;;;;;1.47;1.33;;;3.70;99.90;;;;;;5091205;28;20547;-61
2024/02/14 02:13:09;;;;;;;1.03;0.90;;;3.80;99.90;;;;;;5091337;28;20406;-61
2024/02/14 02:15:35;;;;;;;2.37;1.10;;;3.90;99.90;;;;;;5091223;28;20242;-61
2024/02/14 02:18:05;;;;;;;1.90;1.30;;;3.90;99.90;;;;;;5091153;28;20207;-60
2024/02/14 02:20:32;;;;;;;2.92;1.15;;;4.00;99.90;;;;;;5091227;28;20184;-61
2024/02/14 02:22:58;;;;;;;1.30;1.20;;;4.00;99.90;;;;;;5091257;28;20542;-61
2024/02/14 02:25:26;;;;;;;0.85;0.85;;;4.10;99.90;;;;;;5091210;28;20555;-61
2024/02/14 02:27:56;;;;;;;3.47;1.52;;;4.10;99.90;;;;;;5090776;28;20215;-61
2024/02/14 02:30:22;;;;;;;1.45;1.35;;;4.20;99.90;;;;;;5091278;28;20177;-61
2024/02/14 02:32:48;;;;;;;0.93;0.93;;;4.30;99.90;;;;;;5091192;28;20551;-61
2024/02/14 02:35:13;;;;;;;1.20;1.10;;;4.40;99.90;;;;;;5093704;28;20449;-61
2024/02/14 02:37:39;;;;;;;2.07;1.97;;;4.40;99.90;;;;;;5094627;28;21058;-61
2024/02/14 02:40:05;;;;;;;2.50;1.30;;;4.50;99.90;;;;;;5094869;28;20654;-61
2024/02/14 02:42:31;;;;;;;1.98;1.35;;;4.50;99.90;;;;;;5095029;28;20526;-61
2024/02/14 02:44:56;;;;;;;1.13;0.97;;;4.50;99.90;;;;;;5094660;28;20230;-61
2024/02/14 02:47:22;;;;;;;1.20;1.10;;;4.50;99.90;;;;;;5094730;28;20173;-60
2024/02/14 02:49:48;;;;;;;2.40;1.30;;;4.50;99.90;;;;;;5094832;28;20669;-61
2024/02/14 02:52:13;;;;;;;1.07;1.07;;;4.60;99.90;;;;;;5094623;28;20197;-61
2024/02/14 02:54:43;;;;;;;1.77;0.73;;;4.80;99.90;;;;;;5094602;28;20182;-61
2024/02/14 02:57:12;;;;;;;3.85;1.48;;;4.90;99.90;;;;;;5094440;28;20205;-61
2024/02/14 02:59:42;;;;;;;1.25;1.08;;;4.90;99.90;;;;;;5094269;28;20601;-60
2024/02/14 03:02:09;;;;;;;1.25;1.15;;;4.90;99.90;;;;;;5076273;28;20531;-61
2024/02/14 03:04:35;;;;;;;3.28;1.35;;;4.90;99.90;;;;;;5094425;28;20266;-61
2024/02/14 03:07:06;;;;;;;1.27;1.17;;;5.00;99.90;;;;;;5094058;28;20835;-61
2024/02/14 03:09:35;;;;;;;1.58;1.25;;;5.00;99.90;;;;;;5094589;28;20228;-61
2024/02/14 03:12:03;;;;;;;1.45;1.08;;;5.00;99.90;;;;;;5094173;28;20165;-61
2024/02/14 03:14:32;;;;;;;1.60;0.98;;;5.00;99.90;;;;;;5094716;28;20279;-61
2024/02/14 03:17:01;;;;;;;1.27;1.17;;;5.00;99.90;;;;;;5094893;28;20196;-61
2024/02/14 03:19:27;;;;;;;0.60;0.60;;;5.10;99.90;;;;;;5094098;28;20173;-61
2024/02/14 03:21:56;;;;;;;2.70;0.80;;;5.10;99.90;;;;;;5094176;28;20187;-61
2024/02/14 03:24:25;;;;;;;2.88;1.00;;;5.20;99.90;;;;;;5094016;28;20287;-61
2024/02/14 03:26:53;;;;;;;1.30;1.15;;;5.40;99.90;;;;;;5093728;28;20172;-61
2024/02/14 03:29:22;;;;;;;1.50;1.05;;;5.40;99.90;;;;;;5093985;28;20180;-61
2024/02/14 03:31:48;;;;;;;2.75;0.80;;;5.50;99.90;;;;;;5093897;28;20165;-61
2024/02/14 03:34:14;;;;;;;1.23;1.17;;;5.60;99.90;;;;;;5093966;28;20190;-60
2024/02/14 03:36:40;;;;;;;1.85;1.75;;;5.70;99.90;;;;;;5093527;28;20193;-61
2024/02/14 03:39:06;;;;;;;0.80;0.80;;;5.60;99.90;;;;;;5093811;28;20179;-61
2024/02/14 03:41:32;;;;;;;1.67;1.55;;;5.50;99.90;;;;;;5093856;28;20306;-61
2024/02/14 03:44:00;;;;;;;2.20;1.77;;;5.40;99.90;;;;;;5092235;28;20204;-61
2024/02/14 03:46:27;;;;;;;3.15;1.50;;;5.40;99.90;;;;;;5093207;28;20177;-61
2024/02/14 03:48:54;;;;;;;1.70;1.60;;;5.40;99.90;;;;;;5093628;28;20261;-60
2024/02/14 03:51:19;;;;;;;0.80;0.80;;;5.30;99.90;;;;;;5093551;28;20173;-61
2024/02/14 03:53:45;;;;;;;0.80;0.80;;;5.20;99.90;;;;;;5093405;28;20285;-61
2024/02/14 03:56:12;;;;;;;2.30;0.90;;;5.10;99.90;;;;;;5093243;28;20236;-61
2024/02/14 03:58:38;;;;;;;2.78;1.20;;;4.90;99.90;;;;;;5093152;28;20182;-61
2024/02/14 04:01:04;;;;;;;2.35;1.40;;;4.90;99.90;;;;;;5093290;28;20650;-61
2024/02/14 04:03:30;;;;;;;1.15;0.93;;;5.00;99.90;;;;;;5093254;28;20200;-61
2024/02/14 04:05:56;;;;;;;1.10;0.80;;;5.00;99.90;;;;;;5093268;28;20181;-61
2024/02/14 04:08:21;;;;;;;1.70;0.93;;;5.00;99.90;;;;;;5092885;28;20179;-61
2024/02/14 04:10:49;;;;;;;1.00;1.00;;;5.00;99.90;;;;;;5093115;28;20162;-61
2024/02/14 04:13:15;;;;;;;0.80;0.80;;;5.10;99.90;;;;;;5092998;28;20276;-61
2024/02/14 04:15:42;;;;;;;0.77;0.77;;;5.20;99.90;;;;;;5093011;28;20287;-61
2024/02/14 04:18:08;;;;;;;1.77;1.00;;;5.30;99.90;;;;;;5092858;28;20179;-60
2024/02/14 04:20:34;;;;;;;1.87;1.23;;;5.40;99.90;;;;;;5092927;28;20231;-61
2024/02/14 04:23:00;;;;;;;0.82;0.82;;;5.50;99.90;;;;;;5092929;28;20486;-61
2024/02/14 04:25:26;;;;;;;0.90;0.90;;;5.60;99.90;;;;;;5093002;28;20604;-61
2024/02/14 04:27:51;;;;;;;1.07;0.90;;;5.70;99.90;;;;;;5092534;28;20173;-61
2024/02/14 04:30:17;;;;;;;2.50;1.17;;;5.70;99.90;;;;;;5092867;28;20224;-61
2024/02/14 04:32:43;;;;;;;1.37;1.17;;;5.70;99.90;;;;;;5092864;28;20588;-61
2024/02/14 04:35:09;;;;;;;1.35;1.10;;;5.70;99.90;;;;;;5092612;28;20602;-61
2024/02/14 04:37:35;;;;;;;1.63;1.45;;;5.60;99.90;;;;;;5093056;28;20172;-61
2024/02/14 04:40:04;;;;;;;1.70;1.05;;;5.60;99.90;;;;;;5093149;28;20174;-61
2024/02/14 04:42:30;;;;;;;1.08;0.98;;;5.70;99.90;;;;;;5092634;28;20234;-61
2024/02/14 04:44:55;;;;;;;1.10;1.10;;;5.80;99.90;;;;;;5092365;28;20212;-61
2024/02/14 04:47:21;;;;;;;1.03;1.00;;;5.80;99.90;;;;;;5092248;28;20517;-61
2024/02/14 04:49:47;;;;;;;3.22;1.75;;;5.90;99.90;;;;;;5092308;28;20648;-61
2024/02/14 04:52:13;;;;;;;1.87;1.30;;;5.90;99.90;;;;;;5092380;28;20184;-61
2024/02/14 04:54:39;;;;;;;4.07;1.30;;;5.80;99.90;;;;;;5092287;28;20545;-61
2024/02/14 04:57:04;;;;;;;1.87;1.73;;;5.90;99.90;;;;;;5091237;28;20492;-61
2024/02/14 04:59:30;;;;;;;1.43;1.30;;;5.90;99.90;;;;;;5092267;28;20753;-61
2024/02/14 05:01:56;;;;;;;1.63;1.23;;;5.90;99.90;;;;;;5092242;28;20171;-61
2024/02/14 05:04:22;;;;;;;1.73;1.20;;;5.90;99.90;;;;;;5091976;28;20421;-61
2024/02/14 05:06:48;;;;;;;1.60;1.48;;;5.90;99.90;;;;;;5091952;28;20228;-61
2024/02/14 05:09:15;;;;;;;4.75;1.92;;;6.00;99.90;;;;;;5092064;28;20180;-61
2024/02/14 05:11:41;;;;;;;1.25;0.93;;;6.00;99.90;;;;;;5091993;28;20182;-61
2024/02/14 05:14:07;;;;;;;1.63;1.53;;;6.10;99.90;;;;;;5091982;28;20195;-61
2024/02/14 05:16:33;;;;;;;1.00;1.00;;;6.10;99.90;;;;;;5091654;28;20977;-61
2024/02/14 05:18:58;;;;;;;1.90;1.00;;;6.10;99.90;;;;;;5091903;28;20804;-61
2024/02/14 05:21:24;;;;;;;0.97;0.90;;;6.10;99.90;;;;;;5091884;28;20169;-61
2024/02/14 05:23:50;;;;;;;0.90;0.90;;;6.20;99.90;;;;;;5091757;28;20196;-61
2024/02/14 05:26:16;;;;;;;1.77;1.40;;;6.30;99.90;;;;;;5091737;28;20663;-61
2024/02/14 05:28:42;;;;;;;2.30;1.27;;;6.30;99.90;;;;;;5091681;28;20197;-61
2024/02/14 05:31:08;;;;;;;3.97;1.80;;;6.20;99.90;;;;;;5091840;28;20171;-61
2024/02/14 05:33:33;;;;;;;1.93;1.80;;;6.10;99.90;;;;;;5091579;28;20460;-61
2024/02/14 05:35:59;;;;;;;1.60;1.50;;;6.00;99.90;;;;;;5091634;28;20469;-61
2024/02/14 05:38:24;;;;;;;1.83;1.53;;;6.00;99.90;;;;;;5091492;28;20175;-61
2024/02/14 05:40:50;;;;;;;1.80;0.97;;;6.10;99.90;;;;;;5091852;28;20182;-61
2024/02/14 05:43:17;;;;;;;1.30;0.93;;;6.10;99.90;;;;;;5091492;28;20207;-60
2024/02/14 05:45:43;;;;;;;0.80;0.80;;;6.20;99.90;;;;;;5091640;28;20167;-61
2024/02/14 05:48:08;;;;;;;0.83;0.80;;;6.30;99.90;;;;;;5091282;28;20175;-61
2024/02/14 05:50:34;;;;;;;1.80;1.47;;;6.30;99.90;;;;;;5091583;28;20260;-61
2024/02/14 05:53:00;;;;;;;1.57;1.20;;;6.20;99.90;;;;;;5091417;28;20250;-61
2024/02/14 05:55:26;;;;;;;1.35;1.25;;;6.20;99.90;;;;;;5091120;28;20413;-61
2024/02/14 05:57:52;;;;;;;1.63;1.53;;;6.10;99.90;;;;;;5091153;28;20651;-61
2024/02/14 06:00:21;;;;;;;3.72;1.38;;;6.10;99.90;;;;;;5092367;28;20172;-61
2024/02/14 06:02:50;;;;;;;3.00;2.80;;;6.20;99.90;;;;;;5092095;28;20235;-61
2024/02/14 06:05:16;;;;;;;2.75;2.05;;;6.30;99.90;;;;;;5091383;28;20187;-61
2024/02/14 06:07:44;;;;;;;1.00;1.00;;;6.40;99.90;;;;;;5091393;28;20202;-61
2024/02/14 06:10:10;;;;;;;2.65;1.42;;;6.40;99.90;;;;;;5095577;28;20176;-61
2024/02/14 06:12:36;;;;;;;1.95;0.82;;;6.50;99.90;;;;;;5095622;28;20233;-61
2024/02/14 06:15:02;;;;;;;1.80;1.20;;;6.40;99.90;;;;;;5095454;28;20670;-61
2024/02/14 06:17:28;;;;;;;2.25;1.08;;;6.50;99.90;;;;;;5095055;28;20659;-61
2024/02/14 06:19:54;;;;;;;2.50;1.37;;;6.40;99.90;;;;;;5095527;28;20245;-61
2024/02/14 06:22:21;;;;;;;2.40;1.73;;;6.40;99.90;;;;;;5095485;28;20555;-61
2024/02/14 06:24:50;;;;;;;2.28;1.73;;;6.40;99.90;;;;;;5095188;28;20438;-61
2024/02/14 06:27:16;;;;;;;1.38;1.27;;;6.40;99.90;;;;;;5095052;28;20194;-61
2024/02/14 06:29:43;;;;;;;0.93;0.93;;;6.40;99.90;;;;;;5076846;28;20265;-60
2024/02/14 06:32:11;;;;;;;4.40;1.45;;;6.40;99.90;;;;;;5095165;28;20183;-61
2024/02/14 06:34:37;;;;;;;1.63;1.25;;;6.20;99.90;;;;;;5095087;28;20264;-61
2024/02/14 06:37:02;;;;;;;1.80;1.20;;;6.20;99.90;;;;;;5094823;28;20757;-61
2024/02/14 06:39:28;;;;;;;3.10;1.43;;;6.20;99.90;;;;;;5094985;28;20194;-61
2024/02/14 06:41:53;;;;;;;3.50;1.27;;;6.20;99.90;;;;;;5094928;28;20172;-61
2024/02/14 06:44:19;;;;;;;1.20;1.10;;;6.30;99.90;;;;;;5094673;28;20214;-61
2024/02/14 06:46:45;;;;;;;1.40;1.00;;;6.40;99.90;;;;;;5094558;28;20259;-61
2024/02/14 06:49:10;;;;;;;0.83;0.83;;;6.40;99.90;;;;;;5094781;28;20167;-61
2024/02/14 06:51:36;;;;;;;1.13;0.70;;;6.40;99.90;;;;;;5094727;28;20171;-61
2024/02/14 06:54:02;;;;;;;2.20;1.50;;;6.40;99.90;;;;;;5094716;28;20200;-61
2024/02/14 06:56:30;;;;;;;1.13;0.90;;;6.50;99.90;;;;;;5090725;28;20616;-61
2024/02/14 06:58:59;;;;;;;1.48;1.38;;;6.70;99.90;;;;;;5074276;28;20199;-61
2024/02/14 07:01:26;;;;;;;1.75;1.30;;;6.80;99.90;;;;;;5074130;28;20173;-62
2024/02/14 07:03:52;;;;;;;4.90;1.10;;;7.00;99.90;;;;;;5068995;28;20205;-61
2024/02/14 07:06:18;;;;;;;3.38;1.05;;;7.10;99.90;;;;;;5072988;28;20255;-61
2024/02/14 07:08:44;;;;;;;1.70;1.50;;;7.20;99.90;;;;;;5073744;28;20189;-61
2024/02/14 07:11:09;;;;;;;3.23;1.60;;;7.20;99.90;;;;;;5074279;28;20212;-61
2024/02/14 07:13:35;;;;;;;1.60;1.50;;;7.20;99.90;;;;;;5072609;28;20192;-61
2024/02/14 07:16:01;;;;;;;4.17;1.60;;;7.20;99.90;;;;;;5073850;28;20455;-61
2024/02/14 07:18:26;;;;;;;5.10;2.13;;;7.30;99.90;;;;;;5073873;28;20169;-61
2024/02/14 07:20:52;;;;;;;2.70;2.10;;;7.30;99.90;;;;;;5073158;28;20178;-61
2024/02/14 07:23:19;;;;;;;2.37;1.93;;;7.20;99.90;;;;;;5074726;28;20193;-61
2024/02/14 07:25:44;;;;;;;2.63;1.35;;;7.30;99.90;;;;;;5075292;28;20169;-62
2024/02/14 07:28:10;;;;;;;1.43;1.10;;;7.40;99.90;;;;;;5073688;28;20686;-61
2024/02/14 07:30:36;;;;;;;1.10;0.90;;;7.50;99.90;;;;;;5074029;28;20177;-61
2024/02/14 07:33:02;;;;;;;1.90;1.13;;;7.40;99.90;;;;;;5073687;28;20415;-62
2024/02/14 07:35:28;;;;;;;9.63;2.53;;;7.50;99.90;;;;;;5073605;28;20231;-61
2024/02/14 07:37:54;;;;;;;3.92;2.10;;;7.50;99.90;;;;;;5073267;28;20177;-62
2024/02/14 07:40:21;;;;;;;2.80;2.13;;;7.60;99.90;;;;;;5073730;28;20255;-61
2024/02/14 07:42:47;;;;;;;2.10;1.67;;;7.60;99.90;;;;;;5073046;28;20992;-62
2024/02/14 07:45:13;;;;;;;1.23;1.13;;;7.50;99.90;;;;;;5073003;28;20297;-61
2024/02/14 07:47:40;;;;;;;2.10;1.57;;;7.40;99.90;;;;;;5072557;28;20531;-61
2024/02/14 07:50:06;;;;;;;2.22;1.80;;;7.50;99.90;;;;;;5072400;28;20185;-61
2024/02/14 07:52:32;;;;;;;2.30;1.75;;;7.60;99.90;;;;;;5072927;28;20178;-62
2024/02/14 07:54:58;;;;;;;3.20;1.63;;;7.70;99.90;;;;;;5072658;28;20197;-60
2024/02/14 07:57:24;;;;;;;3.73;2.07;;;7.70;99.90;;;;;;5072781;28;20444;-62
2024/02/14 07:59:51;;;;;;;1.70;1.50;;;7.70;99.90;;;;;;5073519;28;20586;-61
2024/02/14 08:02:17;;;;;;;1.40;1.15;;;7.80;99.80;;;;;;5073243;28;20170;-62
2024/02/14 08:04:43;;;;;;;1.38;1.30;;;7.80;99.90;;;;;;5072667;28;20555;-62
2024/02/14 08:07:09;;;;;;;1.47;1.37;;;7.80;99.90;;;;;;5072741;28;20187;-62
2024/02/14 08:09:35;;;;;;;2.03;1.05;;;7.90;99.90;;;;;;5072635;28;20180;-61
2024/02/14 08:12:01;;;;;;;5.53;2.80;;;8.00;99.90;;;;;;5073006;28;20276;-61
2024/02/14 08:14:26;;;;;;;4.40;1.57;;;8.00;99.90;;;;;;5072731;28;20435;-61
2024/02/14 08:16:52;;;;;;;2.00;1.30;;;8.10;99.90;;;;;;5072115;28;20203;-61
2024/02/14 08:19:18;;;;;;;1.47;1.17;;;8.20;99.80;;;;;;5073186;28;20669;-60
2024/02/14 08:21:44;;;;;;;2.20;1.70;;;8.20;99.80;;;;;;5072608;28;20396;-61
2024/02/14 08:24:10;;;;;;;1.50;1.40;;;8.30;99.70;;;;;;5054822;28;20789;-61
2024/02/14 08:26:36;;;;;;;4.17;2.67;;;8.30;99.80;;;;;;5072824;28;20227;-60
2024/02/14 08:29:03;;;;;;;5.30;2.93;;;8.40;99.80;;;;;;5072644;28;20880;-60
2024/02/14 08:31:29;;;;;;;9.65;5.30;;;8.50;99.80;;;;;;5072478;28;20185;-61
2024/02/14 08:33:54;;;;;;;4.73;4.27;;;8.60;99.60;;;;;;5072433;28;20197;-60
2024/02/14 08:36:20;;;;;;;5.20;3.40;;;8.50;99.90;;;;;;5072400;28;20248;-61
2024/02/14 08:38:46;;;;;;;5.40;3.70;;;8.50;99.90;;;;;;5072181;28;20430;-61
2024/02/14 08:41:12;;;;;;;6.37;4.30;;;8.60;99.90;;;;;;5072409;28;20173;-61
2024/02/14 08:43:38;;;;;;;9.43;4.05;;;8.70;99.90;;;;;;5072245;28;20208;-60
2024/02/14 08:46:08;;;;;;;4.27;3.47;;;8.70;99.80;;;;;;5054538;28;20181;-61
2024/02/14 08:48:35;;;;;;;9.05;4.30;;;8.80;99.70;;;;;;5079947;28;20546;-61
2024/02/14 08:51:00;;;;;;;7.35;5.00;;;8.80;99.80;;;;;;5092601;28;20604;-62
2024/02/14 08:53:27;;;;;;;4.13;3.27;;;8.80;99.90;;;;;;5092460;28;20192;-61
2024/02/14 08:55:52;;;;;;;6.07;5.45;;;8.90;99.90;;;;;;5092595;28;20262;-61
2024/02/14 08:58:18;;;;;;;8.90;6.40;;;9.00;99.90;;;;;;5092359;28;20177;-61
2024/02/14 09:00:43;;;;;;;8.47;7.00;;;9.00;99.90;;;;;;5092276;28;20264;-61
2024/02/14 09:03:09;;;;;;;10.33;5.27;;;9.00;99.90;;;;;;5091934;28;20169;-61
2024/02/14 09:05:35;;;;;;;6.23;4.00;;;9.10;99.90;;;;;;5092287;28;20230;-61
2024/02/14 09:08:01;;;;;;;5.25;4.22;;;9.00;99.90;;;;;;5092176;28;20597;-61
2024/02/14 09:10:27;;;;;;;3.73;3.20;;;9.10;99.90;;;;;;5092332;28;20169;-61
2024/02/14 09:12:53;;;;;;;5.07;4.23;;;9.20;99.90;;;;;;5074076;28;20230;-60
2024/02/14 09:15:19;;;;;;;3.53;3.30;;;9.30;99.90;;;;;;5092412;28;20176;-60
2024/02/14 09:17:45;;;;;;;3.40;3.00;;;9.30;99.90;;;;;;5091716;28;20665;-60
2024/02/14 09:20:13;;;;;;;3.80;3.33;;;9.30;99.90;;;;;;5091977;28;20200;-60
2024/02/14 09:22:41;;;;;;;2.42;2.33;;;9.30;99.90;;;;;;5092003;28;20590;-60
2024/02/14 09:25:09;;;;;;;3.03;2.57;;;9.40;99.90;;;;;;5092287;28;20185;-60
2024/02/14 09:27:35;;;;;;;2.73;2.53;;;9.50;99.90;;;;;;5091986;28;20431;-61
2024/02/14 09:30:07;;;;;;;2.47;2.27;;;9.60;99.90;;;;;;5091567;28;20459;-61
2024/02/14 09:32:33;;;;;;;3.60;2.73;;;9.70;99.90;;;;;;5091975;28;20411;-60
2024/02/14 09:34:59;;;;;;;3.27;2.60;;;9.80;99.90;;;;;;5091603;28;20560;-61
2024/02/14 09:37:26;;;;;;;1.90;1.67;;;9.90;99.90;;;;;;5091502;28;20439;-60
2024/02/14 09:39:51;;;;;;;4.10;1.48;;;9.90;99.70;;;;;;5091828;28;20165;-60
2024/02/14 09:42:23;;;;;;;1.90;1.40;;;10.00;99.30;;;;;;5091865;28;20169;-60
2024/02/14 09:44:52;;;;;;;1.80;1.27;;;10.10;99.20;;;;;;5091817;28;20653;-61
2024/02/14 09:47:19;;;;;;;2.07;1.83;;;10.10;98.80;;;;;;5091568;28;20181;-60
2024/02/14 09:49:46;;;;;;;1.30;1.13;;;10.20;99.00;;;;;;5091852;28;20414;-60
2024/02/14 09:52:12;;;;;;;1.20;1.10;;;10.30;99.00;;;;;;5091884;28;20417;-60
2024/02/14 09:54:39;;;;;;;2.03;1.27;;;10.30;99.10;;;;;;5091583;28;20422;-60
2024/02/14 09:57:05;;;;;;;1.63;1.40;;;10.40;99.10;;;;;;5091613;28;20458;-60
2024/02/14 09:59:31;;;;;;;1.70;1.53;;;10.40;99.20;;;;;;5091658;28;20448;-60
2024/02/14 10:01:57;;;;;;;1.67;1.17;;;10.40;99.10;;;;;;5091525;28;20439;-60
2024/02/14 10:04:24;;;;;;;3.47;1.60;;;10.60;98.40;;;;;;5091567;28;20414;-60
2024/02/14 10:06:51;;;;;;;5.50;2.37;;;10.50;97.20;;;;;;5090046;28;20539;-60
2024/02/14 10:09:23;;;;;;;4.43;1.80;;;10.50;97.40;;;;;;5072271;28;20412;-60
2024/02/14 10:11:49;;;;;;;1.70;1.60;;;10.30;97.30;;;;;;5072238;28;20408;-60
2024/02/14 10:14:15;;;;;;;1.13;1.13;;;10.10;97.40;;;;;;5071751;28;20431;-60
2024/02/14 10:16:41;;;;;;;3.97;1.47;;;10.10;97.40;;;;;;5071121;28;20444;-60
2024/02/14 10:19:17;;;;;;;1.30;1.20;;;10.10;97.20;;;;;;5071647;28;20654;-60
2024/02/14 10:21:43;;;;;;;1.10;0.80;;;10.10;97.30;;;;;;5071691;28;20943;-60
2024/02/14 10:24:10;;;;;;;1.20;1.10;;;10.10;97.60;;;;;;5071239;28;20481;-60
2024/02/14 10:26:37;;;;;;;1.50;1.05;;;10.30;97.40;;;;;;5071219;28;20404;-60
2024/02/14 10:29:03;;;;;;;1.55;1.30;;;10.50;96.60;;;;;;5071360;28;20165;-60
2024/02/14 10:31:29;;;;;;;0.90;0.90;;;10.40;97.00;;;;;;5071123;28;20174;-60
2024/02/14 10:33:58;;;;;;;1.43;1.33;;;10.40;97.60;;;;;;5071236;28;20190;-60
2024/02/14 10:36:24;;;;;;;1.45;1.35;;;10.50;97.40;;;;;;5070697;28;20205;-60
2024/02/14 10:38:50;;;;;;;3.00;2.03;;;10.70;97.20;;;;;;5070701;28;20547;-61
2024/02/14 10:41:17;;;;;;;0.83;0.80;;;10.80;96.70;;;;;;5070972;28;20408;-59
2024/02/14 10:43:44;;;;;;;1.10;0.90;;;10.80;96.70;;;;;;5070758;28;20542;-58
2024/02/14 10:46:25;;;;;;;1.80;1.00;;;10.90;96.30;;;;;;5070416;28;20416;-59
2024/02/14 10:48:56;;;;;;;1.00;0.90;;;11.00;95.90;;;;;;5069637;28;20408;-59
2024/02/14 10:51:22;;;;;;;2.20;1.67;;;11.10;96.10;;;;;;5070731;28;20400;-58
2024/02/14 10:53:51;;;;;;;3.67;2.40;;;11.20;96.10;;;;;;5070098;28;20833;-59
2024/02/14 10:56:19;;;;;;;13.83;7.33;;;11.30;95.90;;;;;;5073234;28;20439;-59
2024/02/14 10:58:49;;;;;;;7.13;6.43;;;11.30;96.00;;;;;;5073535;28;20435;-59
2024/02/14 11:01:18;;;;;;;6.00;5.47;;;11.20;95.90;;;;;;5074429;28;20399;-59
2024/02/14 11:03:44;;;;;;;2.77;2.53;;;11.10;95.90;;;;;;5073223;28;20430;-58
2024/02/14 11:06:16;;;;;;;2.10;2.00;;;11.10;96.50;;;;;;5074376;28;20407;-58
2024/02/14 11:08:53;;;;;;;2.03;1.93;;;11.20;96.30;;;;;;5074112;28;20408;-59
2024/02/14 11:11:19;;;;;;;1.57;1.47;;;11.20;96.20;;;;;;5074167;28;20407;-60
2024/02/14 11:13:44;;;;;;;2.23;1.33;;;11.20;96.40;;;;;;5074153;28;20554;-60
2024/02/14 11:16:10;;;;;;;2.00;1.40;;;11.30;96.50;;;;;;5074053;28;20693;-60
2024/02/14 11:18:37;;;;;;;0.90;0.77;;;11.30;96.40;;;;;;5073910;28;20165;-60
2024/02/14 11:21:17;;;;;;;2.73;2.53;;;11.40;96.50;;;;;;5056108;28;20165;-60
2024/02/14 11:23:54;;;;;;;3.30;2.13;;;11.40;96.50;;;;;;5073885;28;20435;-60
2024/02/14 11:26:19;;;;;;;3.55;2.25;;;11.40;96.50;;;;;;5074031;28;20429;-60
2024/02/14 11:28:48;;;;;;;3.10;2.80;;;11.30;96.70;;;;;;5073651;28;20738;-60
2024/02/14 11:31:17;;;;;;;1.30;1.20;;;11.20;96.90;;;;;;5074407;28;20495;-60
2024/02/14 11:33:46;;;;;;;1.63;1.35;;;11.20;96.90;;;;;;5074496;28;20189;-60
2024/02/14 11:36:14;;;;;;;0.82;0.82;;;11.10;97.20;;;;;;5073570;28;20670;-60
2024/02/14 11:38:41;;;;;;;1.27;1.10;;;11.00;97.20;;;;;;5073697;28;20602;-60
2024/02/14 11:41:06;;;;;;;2.33;1.77;;;11.00;97.30;;;;;;5073644;28;20415;-60
2024/02/14 11:43:32;;;;;;;1.93;1.47;;;11.00;97.50;;;;;;5073319;28;20201;-60
2024/02/14 11:45:58;;;;;;;0.93;0.93;;;11.00;97.70;;;;;;5073539;28;20192;-60
2024/02/14 11:48:24;;;;;;;0.70;0.50;;;11.10;97.80;;;;;;5073227;28;20201;-60
2024/02/14 11:50:53;;;;;;;1.53;0.90;;;11.10;97.90;;;;;;5073439;28;20417;-60
2024/02/14 11:53:19;;;;;;;1.07;1.03;;;11.10;97.80;;;;;;5073347;28;20435;-60
2024/02/14 11:55:48;;;;;;;3.00;2.30;;;11.10;97.80;;;;;;5073162;28;20963;-61
2024/02/14 11:58:16;;;;;;;2.30;1.27;;;11.10;97.90;;;;;;5072830;28;20451;-61
2024/02/14 12:00:43;;;;;;;7.28;2.15;;;11.20;97.90;;;;;;5072989;28;20979;-60
2024/02/14 12:03:22;;;;;;;1.10;1.00;;;11.20;97.90;;;;;;5073005;28;20533;-60
2024/02/14 12:05:50;;;;;;;0.80;0.80;;;11.30;97.90;;;;;;5072815;28;20399;-61
2024/02/14 12:08:16;;;;;;;0.70;0.60;;;11.20;97.90;;;;;;5072921;28;20185;-60
2024/02/14 12:10:52;;;;;;;1.13;1.03;;;11.10;98.00;;;;;;5073100;28;20410;-61
2024/02/14 12:13:20;;;;;;;0.77;0.77;;;10.90;98.00;;;;;;5072990;28;20571;-60
2024/02/14 12:15:48;;;;;;;2.08;0.90;;;10.70;98.40;;;;;;5072717;28;20447;-60
2024/02/14 12:18:14;;;;;;;2.17;1.20;;;10.40;98.70;;;;;;5072884;28;20180;-61
2024/02/14 12:20:40;;;;;;;1.63;0.70;;;10.20;99.30;;;;;;5072910;28;20414;-60
2024/02/14 12:23:06;;;;;;;1.50;1.00;;;10.10;99.90;;;;;;5072924;28;20192;-61
2024/02/14 12:25:33;;;;;;;1.57;0.97;;;10.00;99.90;;;;;;5072769;28;20404;-60
2024/02/14 12:27:59;;;;;;;0.70;0.70;;;9.90;99.90;;;;;;5072339;28;20485;-61
2024/02/14 12:30:45;;;;;;;0.80;0.80;;;10.00;99.90;;;;;;5054612;28;20415;-60
2024/02/14 12:33:11;;;;;;;3.83;1.10;;;10.10;99.90;;;;;;5072343;28;20495;-60
2024/02/14 12:35:41;;;;;;;0.82;0.82;;;10.30;99.90;;;;;;5072363;28;20532;-61
2024/02/14 12:38:11;;;;;;;1.80;1.70;;;10.50;99.90;;;;;;5072204;28;20177;-60
2024/02/14 12:40:38;;;;;;;1.13;1.03;;;10.70;99.90;;;;;;5071941;28;20399;-60
2024/02/14 12:43:05;;;;;;;1.43;1.20;;;10.70;99.90;;;;;;5071964;28;20905;-60
2024/02/14 12:45:31;;;;;;;1.40;1.30;;;10.80;99.70;;;;;;5072162;28;20403;-60
2024/02/14 12:47:57;;;;;;;1.37;1.17;;;11.00;99.50;;;;;;5072022;28;20432;-61
2024/02/14 12:50:23;;;;;;;1.47;1.37;;;11.00;99.30;;;;;;5072215;28;20822;-60
2024/02/14 12:52:48;;;;;;;1.00;1.00;;;11.20;99.50;;;;;;5072274;28;20173;-60